sensor_id;sensor_type;location;lat;lon;timestamp;P1;durP1;ratioP1;P2;durP2;ratioP2
65071;SDS011;51663;52.310;17.016;2023-02-04T00:00:35;10.73;;;9.73;;
65071;SDS011;51663;52.310;17.016;2023-02-04T00:03:59;10.50;;;7.50;;
65071;SDS011;51663;52.310;17.016;2023-02-04T00:07:01;8.80;;;7.90;;
65071;SDS011;51663;52.310;17.016;2023-02-04T00:10:04;7.07;;;6.33;;
65071;SDS011;51663;52.310;17.016;2023-02-04T00:13:07;8.83;;;7.93;;
65071;SDS011;51663;52.310;17.016;2023-02-04T00:16:09;8.10;;;7.30;;
65071;SDS011;51663;52.310;17.016;2023-02-04T00:19:11;8.03;;;7.33;;
65071;SDS011;51663;52.310;17.016;2023-02-04T00:22:14;7.27;;;5.77;;
65071;SDS011;51663;52.310;17.016;2023-02-04T00:25:16;6.13;;;5.60;;
65071;SDS011;51663;52.310;17.016;2023-02-04T00:28:18;6.53;;;5.87;;
65071;SDS011;51663;52.310;17.016;2023-02-04T00:31:20;6.27;;;5.67;;
65071;SDS011;51663;52.310;17.016;2023-02-04T00:34:23;6.40;;;5.73;;
65071;SDS011;51663;52.310;17.016;2023-02-04T00:37:25;5.47;;;4.97;;
65071;SDS011;51663;52.310;17.016;2023-02-04T00:40:27;6.60;;;5.93;;
65071;SDS011;51663;52.310;17.016;2023-02-04T00:43:30;5.03;;;4.23;;
65071;SDS011;51663;52.310;17.016;2023-02-04T00:46:32;4.37;;;3.97;;
65071;SDS011;51663;52.310;17.016;2023-02-04T00:49:34;4.67;;;4.27;;
65071;SDS011;51663;52.310;17.016;2023-02-04T00:52:37;4.00;;;3.70;;
65071;SDS011;51663;52.310;17.016;2023-02-04T00:55:39;3.73;;;3.37;;
65071;SDS011;51663;52.310;17.016;2023-02-04T00:58:41;4.10;;;3.40;;
65071;SDS011;51663;52.310;17.016;2023-02-04T01:01:43;2.87;;;2.53;;
65071;SDS011;51663;52.310;17.016;2023-02-04T01:04:45;3.20;;;2.90;;
65071;SDS011;51663;52.310;17.016;2023-02-04T01:07:48;2.60;;;2.40;;
65071;SDS011;51663;52.310;17.016;2023-02-04T01:10:50;4.67;;;2.57;;
65071;SDS011;51663;52.310;17.016;2023-02-04T01:13:52;2.40;;;2.03;;
65071;SDS011;51663;52.310;17.016;2023-02-04T01:16:55;2.17;;;1.67;;
65071;SDS011;51663;52.310;17.016;2023-02-04T01:19:57;1.80;;;1.70;;
65071;SDS011;51663;52.310;17.016;2023-02-04T01:22:59;2.60;;;2.40;;
65071;SDS011;51663;52.310;17.016;2023-02-04T01:26:01;2.30;;;2.10;;
65071;SDS011;51663;52.310;17.016;2023-02-04T01:29:04;2.33;;;2.13;;
65071;SDS011;51663;52.310;17.016;2023-02-04T01:32:06;3.37;;;2.40;;
65071;SDS011;51663;52.310;17.016;2023-02-04T01:35:09;3.93;;;2.63;;
65071;SDS011;51663;52.310;17.016;2023-02-04T01:38:11;3.10;;;2.60;;
65071;SDS011;51663;52.310;17.016;2023-02-04T01:41:14;3.77;;;2.80;;
65071;SDS011;51663;52.310;17.016;2023-02-04T01:44:17;3.60;;;2.90;;
65071;SDS011;51663;52.310;17.016;2023-02-04T01:47:19;4.73;;;3.23;;
65071;SDS011;51663;52.310;17.016;2023-02-04T01:50:22;2.30;;;2.10;;
65071;SDS011;51663;52.310;17.016;2023-02-04T01:53:24;2.70;;;2.27;;
65071;SDS011;51663;52.310;17.016;2023-02-04T01:56:28;3.27;;;2.97;;
65071;SDS011;51663;52.310;17.016;2023-02-04T01:59:32;3.03;;;2.73;;
65071;SDS011;51663;52.310;17.016;2023-02-04T02:05:51;5.17;;;3.10;;
65071;SDS011;51663;52.310;17.016;2023-02-04T02:08:55;2.77;;;2.23;;
65071;SDS011;51663;52.310;17.016;2023-02-04T02:11:59;3.10;;;2.80;;
65071;SDS011;51663;52.310;17.016;2023-02-04T02:15:03;2.63;;;2.43;;
65071;SDS011;51663;52.310;17.016;2023-02-04T02:18:06;3.33;;;2.60;;
65071;SDS011;51663;52.310;17.016;2023-02-04T02:21:09;2.67;;;2.27;;
65071;SDS011;51663;52.310;17.016;2023-02-04T02:27:37;3.53;;;2.80;;
65071;SDS011;51663;52.310;17.016;2023-02-04T02:30:40;3.63;;;2.90;;
65071;SDS011;51663;52.310;17.016;2023-02-04T02:33:46;3.70;;;3.40;;
65071;SDS011;51663;52.310;17.016;2023-02-04T02:36:48;5.13;;;4.00;;
65071;SDS011;51663;52.310;17.016;2023-02-04T02:39:51;6.40;;;4.47;;
65071;SDS011;51663;52.310;17.016;2023-02-04T02:42:54;5.00;;;4.50;;
65071;SDS011;51663;52.310;17.016;2023-02-04T02:45:57;6.80;;;4.93;;
65071;SDS011;51663;52.310;17.016;2023-02-04T02:49:01;6.17;;;5.57;;
65071;SDS011;51663;52.310;17.016;2023-02-04T02:52:03;6.50;;;5.27;;
65071;SDS011;51663;52.310;17.016;2023-02-04T02:55:11;5.87;;;5.27;;
65071;SDS011;51663;52.310;17.016;2023-02-04T02:58:22;5.33;;;4.83;;
65071;SDS011;51663;52.310;17.016;2023-02-04T03:01:26;7.20;;;6.00;;
65071;SDS011;51663;52.310;17.016;2023-02-04T03:04:29;6.27;;;5.67;;
65071;SDS011;51663;52.310;17.016;2023-02-04T03:07:34;6.37;;;5.77;;
65071;SDS011;51663;52.310;17.016;2023-02-04T03:10:36;7.77;;;5.30;;
65071;SDS011;51663;52.310;17.016;2023-02-04T03:13:39;4.43;;;3.87;;
65071;SDS011;51663;52.310;17.016;2023-02-04T03:16:42;4.43;;;3.97;;
65071;SDS011;51663;52.310;17.016;2023-02-04T03:19:45;6.30;;;5.30;;
65071;SDS011;51663;52.310;17.016;2023-02-04T03:22:47;5.10;;;4.53;;
65071;SDS011;51663;52.310;17.016;2023-02-04T03:25:49;7.63;;;4.77;;
65071;SDS011;51663;52.310;17.016;2023-02-04T03:28:53;4.07;;;3.70;;
65071;SDS011;51663;52.310;17.016;2023-02-04T03:31:55;5.20;;;4.20;;
65071;SDS011;51663;52.310;17.016;2023-02-04T03:35:00;10.40;;;4.33;;
65071;SDS011;51663;52.310;17.016;2023-02-04T03:38:02;3.53;;;3.10;;
65071;SDS011;51663;52.310;17.016;2023-02-04T03:41:04;4.23;;;3.17;;
65071;SDS011;51663;52.310;17.016;2023-02-04T03:44:08;4.20;;;3.33;;
65071;SDS011;51663;52.310;17.016;2023-02-04T03:47:10;4.03;;;3.30;;
65071;SDS011;51663;52.310;17.016;2023-02-04T03:50:12;5.50;;;2.90;;
65071;SDS011;51663;52.310;17.016;2023-02-04T03:53:14;3.30;;;3.00;;
65071;SDS011;51663;52.310;17.016;2023-02-04T03:56:17;7.80;;;3.77;;
65071;SDS011;51663;52.310;17.016;2023-02-04T03:59:19;4.43;;;3.30;;
65071;SDS011;51663;52.310;17.016;2023-02-04T04:02:21;4.63;;;3.37;;
65071;SDS011;51663;52.310;17.016;2023-02-04T04:05:23;8.60;;;3.67;;
65071;SDS011;51663;52.310;17.016;2023-02-04T04:08:27;3.27;;;2.97;;
65071;SDS011;51663;52.310;17.016;2023-02-04T04:11:29;8.90;;;3.27;;
65071;SDS011;51663;52.310;17.016;2023-02-04T04:14:32;3.47;;;3.03;;
65071;SDS011;51663;52.310;17.016;2023-02-04T04:17:34;3.33;;;3.00;;
65071;SDS011;51663;52.310;17.016;2023-02-04T04:20:36;3.37;;;2.47;;
65071;SDS011;51663;52.310;17.016;2023-02-04T04:23:38;6.60;;;3.40;;
65071;SDS011;51663;52.310;17.016;2023-02-04T04:26:41;5.03;;;3.10;;
65071;SDS011;51663;52.310;17.016;2023-02-04T04:29:43;4.97;;;3.60;;
65071;SDS011;51663;52.310;17.016;2023-02-04T04:32:45;4.07;;;3.57;;
65071;SDS011;51663;52.310;17.016;2023-02-04T04:35:47;4.97;;;3.10;;
65071;SDS011;51663;52.310;17.016;2023-02-04T04:38:49;3.77;;;3.27;;
65071;SDS011;51663;52.310;17.016;2023-02-04T04:41:51;4.80;;;3.40;;
65071;SDS011;51663;52.310;17.016;2023-02-04T04:44:54;4.67;;;3.50;;
65071;SDS011;51663;52.310;17.016;2023-02-04T04:47:56;4.00;;;3.17;;
65071;SDS011;51663;52.310;17.016;2023-02-04T04:50:58;3.87;;;3.10;;
65071;SDS011;51663;52.310;17.016;2023-02-04T04:54:00;4.60;;;3.30;;
65071;SDS011;51663;52.310;17.016;2023-02-04T04:57:02;3.73;;;3.13;;
65071;SDS011;51663;52.310;17.016;2023-02-04T05:00:05;6.00;;;3.30;;
65071;SDS011;51663;52.310;17.016;2023-02-04T05:03:08;3.97;;;2.70;;
65071;SDS011;51663;52.310;17.016;2023-02-04T05:06:10;4.90;;;3.43;;
65071;SDS011;51663;52.310;17.016;2023-02-04T05:09:13;4.20;;;3.13;;
65071;SDS011;51663;52.310;17.016;2023-02-04T05:12:17;3.80;;;2.50;;
65071;SDS011;51663;52.310;17.016;2023-02-04T05:15:20;5.07;;;3.40;;
65071;SDS011;51663;52.310;17.016;2023-02-04T05:18:22;4.27;;;3.37;;
65071;SDS011;51663;52.310;17.016;2023-02-04T05:21:24;5.97;;;3.53;;
65071;SDS011;51663;52.310;17.016;2023-02-04T05:24:26;6.10;;;3.23;;
65071;SDS011;51663;52.310;17.016;2023-02-04T05:27:29;3.80;;;3.40;;
65071;SDS011;51663;52.310;17.016;2023-02-04T05:30:31;4.33;;;3.40;;
65071;SDS011;51663;52.310;17.016;2023-02-04T05:33:34;8.07;;;4.00;;
65071;SDS011;51663;52.310;17.016;2023-02-04T05:36:36;4.57;;;3.23;;
65071;SDS011;51663;52.310;17.016;2023-02-04T05:39:38;4.00;;;3.37;;
65071;SDS011;51663;52.310;17.016;2023-02-04T05:42:40;4.27;;;3.70;;
65071;SDS011;51663;52.310;17.016;2023-02-04T05:45:42;4.93;;;3.53;;
65071;SDS011;51663;52.310;17.016;2023-02-04T05:48:44;4.23;;;3.20;;
65071;SDS011;51663;52.310;17.016;2023-02-04T05:51:47;5.57;;;3.60;;
65071;SDS011;51663;52.310;17.016;2023-02-04T05:54:49;4.30;;;3.13;;
65071;SDS011;51663;52.310;17.016;2023-02-04T05:57:51;4.20;;;3.13;;
65071;SDS011;51663;52.310;17.016;2023-02-04T06:00:53;5.43;;;3.27;;
65071;SDS011;51663;52.310;17.016;2023-02-04T06:03:55;5.30;;;3.23;;
65071;SDS011;51663;52.310;17.016;2023-02-04T06:06:57;5.20;;;3.47;;
65071;SDS011;51663;52.310;17.016;2023-02-04T06:10:00;3.53;;;2.60;;
65071;SDS011;51663;52.310;17.016;2023-02-04T06:13:02;5.03;;;3.10;;
65071;SDS011;51663;52.310;17.016;2023-02-04T06:16:04;4.73;;;3.10;;
65071;SDS011;51663;52.310;17.016;2023-02-04T06:19:07;4.87;;;2.97;;
65071;SDS011;51663;52.310;17.016;2023-02-04T06:22:10;4.53;;;2.80;;
65071;SDS011;51663;52.310;17.016;2023-02-04T06:25:12;3.73;;;2.77;;
65071;SDS011;51663;52.310;17.016;2023-02-04T06:28:14;6.80;;;3.33;;
65071;SDS011;51663;52.310;17.016;2023-02-04T06:31:17;6.63;;;3.83;;
65071;SDS011;51663;52.310;17.016;2023-02-04T06:34:19;5.03;;;3.50;;
65071;SDS011;51663;52.310;17.016;2023-02-04T06:37:21;5.90;;;3.10;;
65071;SDS011;51663;52.310;17.016;2023-02-04T06:40:25;6.63;;;3.63;;
65071;SDS011;51663;52.310;17.016;2023-02-04T06:43:27;4.70;;;2.73;;
65071;SDS011;51663;52.310;17.016;2023-02-04T06:46:29;3.17;;;2.53;;
65071;SDS011;51663;52.310;17.016;2023-02-04T06:49:31;3.63;;;3.00;;
65071;SDS011;51663;52.310;17.016;2023-02-04T06:52:33;7.30;;;3.10;;
65071;SDS011;51663;52.310;17.016;2023-02-04T06:55:36;4.93;;;3.10;;
65071;SDS011;51663;52.310;17.016;2023-02-04T06:58:38;3.17;;;2.50;;
65071;SDS011;51663;52.310;17.016;2023-02-04T07:01:40;4.33;;;2.67;;
65071;SDS011;51663;52.310;17.016;2023-02-04T07:04:42;2.83;;;2.60;;
65071;SDS011;51663;52.310;17.016;2023-02-04T07:07:47;3.50;;;2.40;;
65071;SDS011;51663;52.310;17.016;2023-02-04T07:10:49;4.33;;;2.40;;
65071;SDS011;51663;52.310;17.016;2023-02-04T07:13:51;4.13;;;2.73;;
65071;SDS011;51663;52.310;17.016;2023-02-04T07:16:54;4.10;;;2.40;;
65071;SDS011;51663;52.310;17.016;2023-02-04T07:19:58;2.10;;;1.90;;
65071;SDS011;51663;52.310;17.016;2023-02-04T07:23:00;2.37;;;1.57;;
65071;SDS011;51663;52.310;17.016;2023-02-04T07:26:02;3.07;;;2.10;;
65071;SDS011;51663;52.310;17.016;2023-02-04T07:29:05;2.00;;;1.47;;
65071;SDS011;51663;52.310;17.016;2023-02-04T07:32:14;2.20;;;2.00;;
65071;SDS011;51663;52.310;17.016;2023-02-04T07:35:17;2.97;;;1.40;;
65071;SDS011;51663;52.310;17.016;2023-02-04T07:38:19;2.43;;;1.60;;
65071;SDS011;51663;52.310;17.016;2023-02-04T07:41:21;2.07;;;1.33;;
65071;SDS011;51663;52.310;17.016;2023-02-04T07:44:23;5.93;;;2.03;;
65071;SDS011;51663;52.310;17.016;2023-02-04T07:47:25;2.13;;;1.60;;
65071;SDS011;51663;52.310;17.016;2023-02-04T07:50:27;3.70;;;1.90;;
65071;SDS011;51663;52.310;17.016;2023-02-04T07:53:30;3.57;;;1.53;;
65071;SDS011;51663;52.310;17.016;2023-02-04T07:56:32;1.50;;;1.20;;
65071;SDS011;51663;52.310;17.016;2023-02-04T07:59:35;4.00;;;1.47;;
65071;SDS011;51663;52.310;17.016;2023-02-04T08:02:37;2.80;;;1.10;;
65071;SDS011;51663;52.310;17.016;2023-02-04T08:05:39;2.63;;;1.33;;
65071;SDS011;51663;52.310;17.016;2023-02-04T08:08:41;1.80;;;1.17;;
65071;SDS011;51663;52.310;17.016;2023-02-04T08:11:43;2.00;;;1.40;;
65071;SDS011;51663;52.310;17.016;2023-02-04T08:14:45;3.20;;;1.40;;
65071;SDS011;51663;52.310;17.016;2023-02-04T08:17:48;3.27;;;1.87;;
65071;SDS011;51663;52.310;17.016;2023-02-04T08:20:50;1.63;;;1.30;;
65071;SDS011;51663;52.310;17.016;2023-02-04T08:23:52;3.50;;;1.60;;
65071;SDS011;51663;52.310;17.016;2023-02-04T08:26:54;3.27;;;1.80;;
65071;SDS011;51663;52.310;17.016;2023-02-04T08:29:57;3.40;;;2.03;;
65071;SDS011;51663;52.310;17.016;2023-02-04T08:32:59;2.37;;;1.90;;
65071;SDS011;51663;52.310;17.016;2023-02-04T08:36:01;3.30;;;1.90;;
65071;SDS011;51663;52.310;17.016;2023-02-04T08:39:04;2.40;;;1.70;;
65071;SDS011;51663;52.310;17.016;2023-02-04T08:42:06;2.70;;;1.20;;
65071;SDS011;51663;52.310;17.016;2023-02-04T08:45:08;4.37;;;1.50;;
65071;SDS011;51663;52.310;17.016;2023-02-04T08:48:11;2.60;;;1.30;;
65071;SDS011;51663;52.310;17.016;2023-02-04T08:51:13;1.60;;;1.33;;
65071;SDS011;51663;52.310;17.016;2023-02-04T08:54:16;3.43;;;1.47;;
65071;SDS011;51663;52.310;17.016;2023-02-04T08:57:18;3.63;;;1.10;;
65071;SDS011;51663;52.310;17.016;2023-02-04T09:00:21;3.13;;;1.40;;
65071;SDS011;51663;52.310;17.016;2023-02-04T09:03:23;3.17;;;1.30;;
65071;SDS011;51663;52.310;17.016;2023-02-04T09:06:25;1.60;;;1.40;;
65071;SDS011;51663;52.310;17.016;2023-02-04T09:09:27;1.90;;;1.53;;
65071;SDS011;51663;52.310;17.016;2023-02-04T09:12:29;1.93;;;1.50;;
65071;SDS011;51663;52.310;17.016;2023-02-04T09:15:31;7.27;;;1.50;;
65071;SDS011;51663;52.310;17.016;2023-02-04T09:18:34;2.67;;;1.90;;
65071;SDS011;51663;52.310;17.016;2023-02-04T09:21:36;3.33;;;1.87;;
65071;SDS011;51663;52.310;17.016;2023-02-04T09:24:38;2.03;;;1.37;;
65071;SDS011;51663;52.310;17.016;2023-02-04T09:27:40;2.50;;;1.93;;
65071;SDS011;51663;52.310;17.016;2023-02-04T09:30:43;3.60;;;2.50;;
65071;SDS011;51663;52.310;17.016;2023-02-04T09:33:47;6.17;;;3.47;;
65071;SDS011;51663;52.310;17.016;2023-02-04T09:36:50;4.63;;;2.03;;
65071;SDS011;51663;52.310;17.016;2023-02-04T09:39:52;2.73;;;1.70;;
65071;SDS011;51663;52.310;17.016;2023-02-04T09:42:55;6.10;;;3.50;;
65071;SDS011;51663;52.310;17.016;2023-02-04T09:45:57;4.07;;;2.00;;
65071;SDS011;51663;52.310;17.016;2023-02-04T09:49:00;3.47;;;2.23;;
65071;SDS011;51663;52.310;17.016;2023-02-04T09:52:04;2.53;;;1.87;;
65071;SDS011;51663;52.310;17.016;2023-02-04T09:55:14;2.70;;;1.30;;
65071;SDS011;51663;52.310;17.016;2023-02-04T09:58:19;1.83;;;1.57;;
65071;SDS011;51663;52.310;17.016;2023-02-04T10:01:25;3.83;;;2.13;;
65071;SDS011;51663;52.310;17.016;2023-02-04T10:04:29;3.77;;;1.50;;
65071;SDS011;51663;52.310;17.016;2023-02-04T10:07:31;5.63;;;4.40;;
65071;SDS011;51663;52.310;17.016;2023-02-04T10:10:33;1.87;;;1.50;;
65071;SDS011;51663;52.310;17.016;2023-02-04T10:13:41;1.73;;;1.37;;
65071;SDS011;51663;52.310;17.016;2023-02-04T10:16:56;4.50;;;1.93;;
65071;SDS011;51663;52.310;17.016;2023-02-04T10:20:17;2.23;;;1.10;;
65071;SDS011;51663;52.310;17.016;2023-02-04T10:23:23;2.23;;;1.73;;
65071;SDS011;51663;52.310;17.016;2023-02-04T10:26:26;3.40;;;1.80;;
65071;SDS011;51663;52.310;17.016;2023-02-04T10:29:30;2.17;;;1.70;;
65071;SDS011;51663;52.310;17.016;2023-02-04T10:32:35;1.60;;;1.47;;
65071;SDS011;51663;52.310;17.016;2023-02-04T10:35:43;1.80;;;1.23;;
65071;SDS011;51663;52.310;17.016;2023-02-04T10:38:57;4.07;;;2.73;;
65071;SDS011;51663;52.310;17.016;2023-02-04T10:42:00;3.30;;;1.80;;
65071;SDS011;51663;52.310;17.016;2023-02-04T10:45:03;7.13;;;1.63;;
65071;SDS011;51663;52.310;17.016;2023-02-04T10:48:12;2.57;;;1.70;;
65071;SDS011;51663;52.310;17.016;2023-02-04T10:51:22;4.17;;;1.63;;
65071;SDS011;51663;52.310;17.016;2023-02-04T10:54:28;2.50;;;1.63;;
65071;SDS011;51663;52.310;17.016;2023-02-04T10:57:38;5.70;;;2.60;;
65071;SDS011;51663;52.310;17.016;2023-02-04T11:00:42;4.00;;;2.60;;
65071;SDS011;51663;52.310;17.016;2023-02-04T11:03:44;2.63;;;1.80;;
65071;SDS011;51663;52.310;17.016;2023-02-04T11:06:49;5.07;;;2.23;;
65071;SDS011;51663;52.310;17.016;2023-02-04T11:09:53;2.83;;;2.20;;
65071;SDS011;51663;52.310;17.016;2023-02-04T11:19:12;4.77;;;2.33;;
65071;SDS011;51663;52.310;17.016;2023-02-04T11:22:48;1.93;;;1.40;;
65071;SDS011;51663;52.310;17.016;2023-02-04T11:25:44;2.50;;;1.73;;
65071;SDS011;51663;52.310;17.016;2023-02-04T11:32:03;2.57;;;1.90;;
65071;SDS011;51663;52.310;17.016;2023-02-04T11:35:25;2.67;;;1.60;;
65071;SDS011;51663;52.310;17.016;2023-02-04T11:38:32;4.20;;;2.13;;
65071;SDS011;51663;52.310;17.016;2023-02-04T11:41:35;2.30;;;1.83;;
65071;SDS011;51663;52.310;17.016;2023-02-04T11:44:37;4.90;;;2.57;;
65071;SDS011;51663;52.310;17.016;2023-02-04T11:47:39;2.30;;;1.40;;
65071;SDS011;51663;52.310;17.016;2023-02-04T11:50:42;1.57;;;1.30;;
65071;SDS011;51663;52.310;17.016;2023-02-04T11:53:59;1.63;;;1.40;;
65071;SDS011;51663;52.310;17.016;2023-02-04T11:57:01;2.07;;;1.40;;
65071;SDS011;51663;52.310;17.016;2023-02-04T12:00:04;1.40;;;1.13;;
65071;SDS011;51663;52.310;17.016;2023-02-04T12:06:28;1.90;;;1.50;;
65071;SDS011;51663;52.310;17.016;2023-02-04T12:09:33;2.37;;;1.50;;
65071;SDS011;51663;52.310;17.016;2023-02-04T12:12:40;1.40;;;1.10;;
65071;SDS011;51663;52.310;17.016;2023-02-04T12:15:51;1.50;;;1.40;;
65071;SDS011;51663;52.310;17.016;2023-02-04T12:19:01;7.97;;;2.10;;
65071;SDS011;51663;52.310;17.016;2023-02-04T12:22:03;1.37;;;1.23;;
65071;SDS011;51663;52.310;17.016;2023-02-04T12:25:06;3.47;;;2.27;;
65071;SDS011;51663;52.310;17.016;2023-02-04T12:28:08;3.60;;;2.57;;
65071;SDS011;51663;52.310;17.016;2023-02-04T12:31:10;5.40;;;3.20;;
65071;SDS011;51663;52.310;17.016;2023-02-04T12:34:13;2.83;;;1.90;;
65071;SDS011;51663;52.310;17.016;2023-02-04T12:37:17;2.07;;;1.50;;
65071;SDS011;51663;52.310;17.016;2023-02-04T12:40:19;3.60;;;2.30;;
65071;SDS011;51663;52.310;17.016;2023-02-04T12:43:22;6.07;;;3.60;;
65071;SDS011;51663;52.310;17.016;2023-02-04T12:46:28;2.53;;;1.60;;
65071;SDS011;51663;52.310;17.016;2023-02-04T12:49:31;8.93;;;2.73;;
65071;SDS011;51663;52.310;17.016;2023-02-04T12:52:33;1.60;;;1.47;;
65071;SDS011;51663;52.310;17.016;2023-02-04T12:55:35;3.27;;;1.50;;
65071;SDS011;51663;52.310;17.016;2023-02-04T12:58:38;2.23;;;1.20;;
65071;SDS011;51663;52.310;17.016;2023-02-04T13:01:40;1.47;;;1.00;;
65071;SDS011;51663;52.310;17.016;2023-02-04T13:04:42;4.30;;;1.20;;
65071;SDS011;51663;52.310;17.016;2023-02-04T13:07:45;1.53;;;0.90;;
65071;SDS011;51663;52.310;17.016;2023-02-04T13:10:47;1.13;;;1.00;;
65071;SDS011;51663;52.310;17.016;2023-02-04T13:13:52;2.50;;;1.93;;
65071;SDS011;51663;52.310;17.016;2023-02-04T13:16:54;1.33;;;1.23;;
65071;SDS011;51663;52.310;17.016;2023-02-04T13:19:57;2.13;;;1.10;;
65071;SDS011;51663;52.310;17.016;2023-02-04T13:22:59;2.27;;;1.43;;
65071;SDS011;51663;52.310;17.016;2023-02-04T13:26:01;0.87;;;0.80;;
65071;SDS011;51663;52.310;17.016;2023-02-04T13:29:03;2.67;;;1.13;;
65071;SDS011;51663;52.310;17.016;2023-02-04T13:32:05;2.33;;;1.73;;
65071;SDS011;51663;52.310;17.016;2023-02-04T13:35:07;1.80;;;1.30;;
65071;SDS011;51663;52.310;17.016;2023-02-04T13:38:10;3.47;;;1.83;;
65071;SDS011;51663;52.310;17.016;2023-02-04T13:41:12;2.03;;;1.83;;
65071;SDS011;51663;52.310;17.016;2023-02-04T13:44:14;1.63;;;1.10;;
65071;SDS011;51663;52.310;17.016;2023-02-04T13:47:16;1.57;;;1.20;;
65071;SDS011;51663;52.310;17.016;2023-02-04T13:50:18;3.63;;;0.90;;
65071;SDS011;51663;52.310;17.016;2023-02-04T13:53:20;2.40;;;1.67;;
65071;SDS011;51663;52.310;17.016;2023-02-04T13:56:23;6.47;;;2.33;;
65071;SDS011;51663;52.310;17.016;2023-02-04T13:59:25;2.70;;;1.90;;
65071;SDS011;51663;52.310;17.016;2023-02-04T14:02:27;5.30;;;2.90;;
65071;SDS011;51663;52.310;17.016;2023-02-04T14:05:30;3.40;;;2.63;;
65071;SDS011;51663;52.310;17.016;2023-02-04T14:08:32;6.27;;;2.00;;
65071;SDS011;51663;52.310;17.016;2023-02-04T14:11:34;5.30;;;3.37;;
65071;SDS011;51663;52.310;17.016;2023-02-04T14:14:37;4.37;;;2.60;;
65071;SDS011;51663;52.310;17.016;2023-02-04T14:17:39;3.13;;;2.20;;
65071;SDS011;51663;52.310;17.016;2023-02-04T14:20:41;6.50;;;4.80;;
65071;SDS011;51663;52.310;17.016;2023-02-04T14:23:44;10.53;;;5.23;;
65071;SDS011;51663;52.310;17.016;2023-02-04T14:26:46;4.23;;;2.30;;
65071;SDS011;51663;52.310;17.016;2023-02-04T14:29:48;8.33;;;3.60;;
65071;SDS011;51663;52.310;17.016;2023-02-04T14:32:51;6.37;;;3.97;;
65071;SDS011;51663;52.310;17.016;2023-02-04T14:35:53;3.53;;;2.77;;
65071;SDS011;51663;52.310;17.016;2023-02-04T14:38:55;7.20;;;4.97;;
65071;SDS011;51663;52.310;17.016;2023-02-04T14:41:57;6.80;;;3.67;;
65071;SDS011;51663;52.310;17.016;2023-02-04T14:44:59;5.80;;;4.13;;
65071;SDS011;51663;52.310;17.016;2023-02-04T14:48:09;13.17;;;9.00;;
65071;SDS011;51663;52.310;17.016;2023-02-04T14:51:11;6.97;;;4.53;;
65071;SDS011;51663;52.310;17.016;2023-02-04T14:54:16;5.60;;;3.97;;
65071;SDS011;51663;52.310;17.016;2023-02-04T14:57:18;4.13;;;2.83;;
65071;SDS011;51663;52.310;17.016;2023-02-04T15:00:23;7.83;;;5.30;;
65071;SDS011;51663;52.310;17.016;2023-02-04T15:03:26;8.37;;;4.10;;
65071;SDS011;51663;52.310;17.016;2023-02-04T15:06:28;6.57;;;4.37;;
65071;SDS011;51663;52.310;17.016;2023-02-04T15:09:30;5.53;;;3.77;;
65071;SDS011;51663;52.310;17.016;2023-02-04T15:12:37;8.60;;;5.00;;
65071;SDS011;51663;52.310;17.016;2023-02-04T15:15:41;10.13;;;4.57;;
65071;SDS011;51663;52.310;17.016;2023-02-04T15:18:43;5.80;;;3.07;;
65071;SDS011;51663;52.310;17.016;2023-02-04T15:21:45;5.10;;;3.23;;
65071;SDS011;51663;52.310;17.016;2023-02-04T15:24:54;10.13;;;3.60;;
65071;SDS011;51663;52.310;17.016;2023-02-04T15:27:56;5.83;;;3.07;;
65071;SDS011;51663;52.310;17.016;2023-02-04T15:30:59;6.20;;;3.50;;
65071;SDS011;51663;52.310;17.016;2023-02-04T15:34:02;3.20;;;2.90;;
65071;SDS011;51663;52.310;17.016;2023-02-04T15:37:08;5.23;;;3.63;;
65071;SDS011;51663;52.310;17.016;2023-02-04T15:40:11;4.97;;;3.20;;
65071;SDS011;51663;52.310;17.016;2023-02-04T15:43:13;5.70;;;3.23;;
65071;SDS011;51663;52.310;17.016;2023-02-04T15:46:15;6.57;;;3.60;;
65071;SDS011;51663;52.310;17.016;2023-02-04T15:49:17;9.93;;;4.50;;
65071;SDS011;51663;52.310;17.016;2023-02-04T15:52:22;4.87;;;3.97;;
65071;SDS011;51663;52.310;17.016;2023-02-04T15:55:26;8.03;;;4.97;;
65071;SDS011;51663;52.310;17.016;2023-02-04T15:58:28;16.27;;;8.80;;
65071;SDS011;51663;52.310;17.016;2023-02-04T16:01:31;11.40;;;6.10;;
65071;SDS011;51663;52.310;17.016;2023-02-04T16:04:33;7.77;;;5.30;;
65071;SDS011;51663;52.310;17.016;2023-02-04T16:07:36;6.40;;;4.70;;
65071;SDS011;51663;52.310;17.016;2023-02-04T16:10:39;14.03;;;8.53;;
65071;SDS011;51663;52.310;17.016;2023-02-04T16:13:41;17.07;;;9.40;;
65071;SDS011;51663;52.310;17.016;2023-02-04T16:16:43;20.93;;;7.90;;
65071;SDS011;51663;52.310;17.016;2023-02-04T16:19:45;17.27;;;9.03;;
65071;SDS011;51663;52.310;17.016;2023-02-04T16:22:48;6.03;;;3.60;;
65071;SDS011;51663;52.310;17.016;2023-02-04T16:25:50;8.43;;;5.17;;
65071;SDS011;51663;52.310;17.016;2023-02-04T16:28:52;6.37;;;4.07;;
65071;SDS011;51663;52.310;17.016;2023-02-04T16:31:56;7.27;;;3.53;;
65071;SDS011;51663;52.310;17.016;2023-02-04T16:34:59;4.87;;;3.43;;
65071;SDS011;51663;52.310;17.016;2023-02-04T16:38:02;5.90;;;3.57;;
65071;SDS011;51663;52.310;17.016;2023-02-04T16:41:05;5.17;;;2.83;;
65071;SDS011;51663;52.310;17.016;2023-02-04T16:44:08;4.97;;;2.70;;
65071;SDS011;51663;52.310;17.016;2023-02-04T16:47:10;5.53;;;3.60;;
65071;SDS011;51663;52.310;17.016;2023-02-04T16:50:12;4.07;;;3.03;;
65071;SDS011;51663;52.310;17.016;2023-02-04T16:53:15;7.73;;;2.90;;
65071;SDS011;51663;52.310;17.016;2023-02-04T16:56:17;6.53;;;3.13;;
65071;SDS011;51663;52.310;17.016;2023-02-04T16:59:20;6.23;;;3.40;;
65071;SDS011;51663;52.310;17.016;2023-02-04T17:02:22;5.03;;;3.13;;
65071;SDS011;51663;52.310;17.016;2023-02-04T17:05:24;5.97;;;2.77;;
65071;SDS011;51663;52.310;17.016;2023-02-04T17:08:26;4.37;;;2.50;;
65071;SDS011;51663;52.310;17.016;2023-02-04T17:11:30;5.37;;;2.70;;
65071;SDS011;51663;52.310;17.016;2023-02-04T17:14:32;4.07;;;2.40;;
65071;SDS011;51663;52.310;17.016;2023-02-04T17:17:34;4.17;;;2.73;;
65071;SDS011;51663;52.310;17.016;2023-02-04T17:20:36;5.97;;;2.63;;
65071;SDS011;51663;52.310;17.016;2023-02-04T17:23:39;5.40;;;3.20;;
65071;SDS011;51663;52.310;17.016;2023-02-04T17:26:41;3.57;;;2.10;;
65071;SDS011;51663;52.310;17.016;2023-02-04T17:29:43;5.63;;;2.30;;
65071;SDS011;51663;52.310;17.016;2023-02-04T17:32:45;4.70;;;2.60;;
65071;SDS011;51663;52.310;17.016;2023-02-04T17:35:48;2.77;;;2.10;;
65071;SDS011;51663;52.310;17.016;2023-02-04T17:38:51;4.57;;;2.67;;
65071;SDS011;51663;52.310;17.016;2023-02-04T17:41:53;4.30;;;2.70;;
65071;SDS011;51663;52.310;17.016;2023-02-04T17:44:55;7.20;;;4.13;;
65071;SDS011;51663;52.310;17.016;2023-02-04T17:47:58;6.10;;;3.20;;
65071;SDS011;51663;52.310;17.016;2023-02-04T17:51:00;5.33;;;2.30;;
65071;SDS011;51663;52.310;17.016;2023-02-04T17:54:02;8.40;;;4.00;;
65071;SDS011;51663;52.310;17.016;2023-02-04T17:57:18;7.10;;;4.13;;
65071;SDS011;51663;52.310;17.016;2023-02-04T18:00:22;6.33;;;3.60;;
65071;SDS011;51663;52.310;17.016;2023-02-04T18:03:26;6.43;;;3.57;;
65071;SDS011;51663;52.310;17.016;2023-02-04T18:06:29;6.60;;;3.27;;
65071;SDS011;51663;52.310;17.016;2023-02-04T18:09:31;8.60;;;4.00;;
65071;SDS011;51663;52.310;17.016;2023-02-04T18:12:34;4.77;;;3.07;;
65071;SDS011;51663;52.310;17.016;2023-02-04T18:15:37;8.47;;;2.87;;
65071;SDS011;51663;52.310;17.016;2023-02-04T18:18:40;3.60;;;2.63;;
65071;SDS011;51663;52.310;17.016;2023-02-04T18:21:42;4.30;;;2.10;;
65071;SDS011;51663;52.310;17.016;2023-02-04T18:24:45;2.73;;;2.23;;